.
WxDataArchive / Data Records for 2009-08-02
2009-08-01 August 2009 2009-08-03

Data Records for Sunday, 02 August 2009

Time	Temp	Chill	HIndex	Humid	Dewpt	 Wind 	HiWind	WindDir	Rain 	Barom 
-----	----	-----	------	-----	-----	------	------	-------	-----	----- 
00:00	68.4	68.4	68.4	80	62.0	0	2	292	0.00	29.914 
00:05	68.3	68.3	68.3	81	62.2	0	1	292	0.00	29.914 
00:10	68.1	68.1	68.1	81	62.0	0	1	292	0.00	29.914 
00:15	68.1	68.1	68.1	81	62.0	0	1	292	0.00	29.910 
00:20	68.1	68.1	68.1	82	62.4	0	1	292	0.00	29.910 
00:25	68.1	68.1	68.1	83	62.7	0	2	292	0.00	29.910 
00:30	67.9	67.9	67.9	83	62.5	0	2	292	0.00	29.916 
00:35	67.9	67.9	67.9	83	62.5	0	2	292	0.00	29.916 
00:40	67.8	67.8	67.8	84	62.8	0	1	292	0.00	29.916 
00:45	67.6	67.6	67.6	84	62.6	0	1	292	0.00	29.901 
00:50	67.6	67.6	67.6	84	62.6	0	0	---	0.00	29.901 
00:55	67.4	67.4	67.4	85	62.7	0	0	---	0.01	29.901 
01:00	67.4	67.4	67.4	86	63.1	0	0	---	0.00	29.890 
01:05	67.3	67.3	67.3	86	63.0	0	0	---	0.00	29.890 
01:10	67.1	67.1	67.1	87	63.1	0	0	---	0.00	29.890 
01:15	66.9	66.9	66.9	87	62.9	0	0	---	0.00	29.890 
01:20	66.9	66.9	66.9	88	63.2	0	0	---	0.00	29.890 
01:25	66.8	66.8	66.8	88	63.1	0	0	---	0.00	29.890 
01:30	66.8	66.8	66.8	89	63.4	0	0	---	0.00	29.887 
01:35	66.6	66.6	66.6	89	63.3	0	0	---	0.00	29.887 
01:40	66.6	66.6	66.6	90	63.6	0	0	---	0.00	29.887 
01:45	66.4	66.4	66.4	90	63.4	0	0	---	0.00	29.888 
01:50	66.4	66.4	66.4	90	63.4	0	1	292	0.00	29.888 
01:55	66.4	66.4	66.4	90	63.4	0	0	---	0.00	29.888 
02:00	66.4	66.4	66.4	91	63.7	0	0	---	0.00	29.887 
02:05	66.4	66.4	66.4	91	63.7	0	0	---	0.00	29.887 
02:10	66.4	66.4	66.4	91	63.7	0	0	---	0.00	29.887 
02:15	66.3	66.3	66.3	91	63.6	0	1	292	0.00	29.886 
02:20	66.1	66.1	66.1	91	63.4	0	0	---	0.00	29.886 
02:25	66.1	66.1	66.1	91	63.4	0	1	292	0.00	29.886 
02:30	66.1	66.1	66.1	91	63.4	0	2	292	0.00	29.880 
02:35	66.1	66.1	66.1	90	63.1	0	3	292	0.00	29.880 
02:40	66.0	66.0	66.0	90	63.0	0	2	292	0.00	29.880 
02:45	66.0	66.0	66.0	90	63.0	0	2	292	0.00	29.877 
02:50	66.0	66.0	66.0	89	62.7	1	3	292	0.00	29.877 
02:55	65.8	65.8	65.8	89	62.5	1	4	292	0.00	29.877 
03:00	65.8	65.8	65.8	89	62.5	0	2	292	0.00	29.874 
03:05	65.6	65.6	65.6	89	62.3	0	1	292	0.00	29.874 
03:10	65.6	65.6	65.6	89	62.3	0	1	292	0.00	29.874 
03:15	65.6	65.6	65.6	89	62.3	0	1	292	0.00	29.869 
03:20	65.5	65.5	65.5	89	62.2	0	0	---	0.00	29.869 
03:25	65.5	65.5	65.5	88	61.8	0	1	292	0.00	29.869 
03:30	65.5	65.5	65.5	88	61.8	0	1	292	0.00	29.870 
03:35	65.5	65.5	65.5	88	61.8	0	1	292	0.00	29.870 
03:40	65.5	65.5	65.5	88	61.8	0	1	292	0.00	29.870 
03:45	65.5	65.5	65.5	88	61.8	0	0	---	0.00	29.858 
03:50	65.5	65.5	65.5	88	61.8	0	0	---	0.00	29.858 
03:55	65.3	65.3	65.3	88	61.6	0	1	292	0.00	29.858 
04:00	65.2	65.2	65.2	89	61.9	0	0	---	0.00	29.858 
04:05	65.2	65.2	65.2	89	61.9	0	0	---	0.00	29.858 
04:10	65.0	65.0	65.0	90	62.0	0	0	---	0.00	29.858 
04:15	65.0	65.0	65.0	90	62.0	0	0	---	0.00	29.854 
04:20	65.0	65.0	65.0	90	62.0	0	1	292	0.00	29.854 
04:25	65.0	65.0	65.0	90	62.0	0	0	---	0.00	29.854 
04:30	64.8	64.8	64.8	90	61.8	0	1	292	0.00	29.850 
04:35	65.0	65.0	65.0	90	62.0	0	1	292	0.00	29.850 
04:40	64.8	64.8	64.8	90	61.8	0	0	---	0.00	29.850 
04:45	64.8	64.8	64.8	90	61.8	0	1	292	0.00	29.844 
04:50	64.8	64.8	64.8	91	62.1	0	0	---	0.00	29.844 
04:55	64.8	64.8	64.8	91	62.1	0	0	---	0.00	29.844 
05:00	64.8	64.8	64.8	91	62.1	0	2	292	0.00	29.849 
05:05	64.8	64.8	64.8	91	62.1	0	1	292	0.00	29.849 
05:10	64.8	64.8	64.8	91	62.1	0	2	292	0.00	29.849 
05:15	64.7	64.7	64.7	91	62.0	0	1	292	0.00	29.855 
05:20	64.7	64.7	64.7	91	62.0	0	2	292	0.00	29.855 
05:25	64.7	64.7	64.7	91	62.0	0	1	292	0.00	29.855 
05:30	64.7	64.7	64.7	91	62.0	0	1	292	0.00	29.858 
05:35	64.7	64.7	64.7	91	62.0	0	1	292	0.00	29.858 
05:40	64.5	64.5	64.5	91	61.8	0	1	292	0.00	29.858 
05:45	64.5	64.5	64.5	91	61.8	0	2	292	0.00	29.860 
05:50	64.5	64.5	64.5	91	61.8	0	1	292	0.00	29.860 
05:55	64.5	64.5	64.5	91	61.8	0	1	292	0.00	29.860 
06:00	64.5	64.5	64.5	91	61.8	0	1	292	0.00	29.861 
06:05	64.3	64.3	64.3	91	61.6	0	1	292	0.00	29.861 
06:10	64.3	64.3	64.3	91	61.6	0	1	292	0.00	29.861 
06:15	64.2	64.2	64.2	91	61.5	0	1	292	0.00	29.865 
06:20	64.2	64.2	64.2	92	61.8	0	1	292	0.00	29.865 
06:25	64.0	64.0	64.0	92	61.6	0	1	292	0.00	29.865 
06:30	64.0	64.0	64.0	92	61.6	0	2	292	0.00	29.871 
06:35	63.9	63.9	63.9	92	61.5	0	1	292	0.00	29.871 
06:40	63.7	63.7	63.7	92	61.3	0	1	292	0.00	29.871 
06:45	63.5	63.5	63.5	91	60.8	0	1	292	0.00	29.865 
06:50	63.5	63.5	63.5	91	60.8	0	1	292	0.00	29.865 
06:55	63.4	63.4	63.4	91	60.7	0	2	292	0.00	29.865 
07:00	63.2	63.2	63.2	91	60.5	0	2	292	0.00	29.874 
07:05	63.2	63.2	63.2	91	60.5	0	3	315	0.00	29.874 
07:10	63.2	63.2	63.2	91	60.5	0	1	315	0.00	29.874 
07:15	63.1	63.1	63.1	91	60.4	0	2	315	0.00	29.880 
07:20	63.1	63.1	63.1	91	60.4	0	1	315	0.00	29.880 
07:25	63.2	63.2	63.2	91	60.5	0	2	315	0.00	29.880 
07:30	63.2	63.2	63.2	91	60.5	0	1	315	0.00	29.888 
07:35	63.2	63.2	63.2	91	60.5	0	1	315	0.00	29.888 
07:40	63.2	63.2	63.2	91	60.5	0	2	315	0.00	29.888 
07:45	63.4	63.4	63.4	91	60.7	0	3	315	0.00	29.896 
07:50	63.5	63.5	63.5	91	60.8	0	2	315	0.00	29.896 
07:55	63.5	63.5	63.5	91	60.8	0	2	315	0.00	29.896 
08:00	63.5	63.5	63.5	91	60.8	0	1	315	0.00	29.899 
08:05	63.7	63.7	63.7	91	61.0	0	2	315	0.00	29.899 
08:10	63.9	63.9	63.9	90	60.9	0	1	315	0.00	29.899 
08:15	64.0	64.0	64.0	90	61.0	0	1	315	0.00	29.906 
08:20	64.2	64.2	64.2	89	60.9	1	2	315	0.00	29.906 
08:25	64.3	64.3	64.3	88	60.7	0	2	315	0.00	29.906 
08:30	64.7	64.7	64.7	88	61.1	0	1	315	0.00	29.907 
08:35	64.8	64.8	64.8	86	60.5	0	2	315	0.00	29.907 
08:40	65.0	65.0	65.0	85	60.4	1	3	315	0.00	29.907 
08:45	65.2	65.2	65.2	84	60.2	1	3	315	0.00	29.910 
08:50	65.3	65.3	65.3	84	60.3	0	2	315	0.00	29.910 
08:55	65.6	65.6	65.6	83	60.3	1	2	315	0.00	29.910 
09:00	65.8	65.8	65.8	82	60.1	1	3	270	0.00	29.916 
09:05	66.1	66.1	66.1	81	60.1	1	3	270	0.00	29.916 
09:10	66.3	66.3	66.3	80	59.9	1	4	315	0.00	29.916 
09:15	66.4	66.4	66.4	77	59.0	1	3	315	0.00	29.922 
09:20	66.8	66.8	66.8	78	59.7	0	1	315	0.00	29.922 
09:25	67.3	67.3	67.3	77	59.8	1	3	315	0.00	29.922 
09:30	67.6	67.6	67.6	76	59.8	0	1	315	0.00	29.921 
09:35	68.1	68.1	68.1	75	59.9	0	2	315	0.00	29.921 
09:40	67.9	67.9	67.9	74	59.3	1	4	270	0.00	29.921 
09:45	67.9	67.9	67.9	73	58.9	1	3	270	0.00	29.924 
09:50	68.1	68.1	68.1	73	59.1	1	4	270	0.00	29.924 
09:55	68.4	68.4	68.4	73	59.4	0	2	315	0.00	29.924 
10:00	68.8	68.8	68.8	72	59.4	1	3	315	0.00	29.925 
10:05	69.1	69.1	69.1	70	58.9	0	3	315	0.00	29.925 
10:10	69.1	69.1	69.1	70	58.9	1	3	270	0.00	29.925 
10:15	69.3	69.3	69.3	69	58.7	0	1	292	0.00	29.927 
10:20	69.4	69.4	69.4	67	58.0	1	4	315	0.00	29.927 
10:25	69.6	69.6	69.6	66	57.7	1	4	270	0.00	29.927 
10:30	69.6	69.6	69.6	65	57.3	1	3	270	0.00	29.929 
10:35	69.6	69.6	69.6	63	56.4	1	3	292	0.00	29.929 
10:40	69.6	69.6	69.6	62	56.0	1	3	292	0.00	29.929 
10:45	70.1	70.1	70.1	59	55.1	1	3	292	0.00	29.929 
10:50	70.3	70.3	70.3	59	55.3	1	3	292	0.00	29.929 
10:55	70.3	70.3	70.3	61	56.2	0	2	292	0.00	29.929 
11:00	70.4	70.4	70.4	62	56.7	1	4	292	0.00	29.940 
11:05	71.1	71.1	71.1	58	55.6	1	3	292	0.00	29.940 
11:10	71.1	71.1	71.1	59	56.0	2	4	292	0.00	29.940 
11:15	71.1	71.1	71.1	56	54.6	2	5	292	0.00	29.943 
11:20	70.9	70.9	70.9	56	54.4	1	4	292	0.00	29.943 
11:25	71.3	71.3	71.3	54	53.8	1	7	315	0.00	29.943 
11:30	71.5	71.5	71.5	57	55.5	1	3	292	0.00	29.943 
11:35	71.6	71.6	71.6	53	53.5	1	3	292	0.00	29.943 
11:40	71.6	71.6	71.6	52	53.0	1	3	315	0.00	29.943 
11:45	72.0	72.0	72.0	53	53.9	2	4	270	0.00	29.951 
11:50	72.0	72.0	72.0	52	53.4	1	3	292	0.00	29.951 
11:55	72.0	72.0	72.0	52	53.4	2	5	270	0.00	29.951 
12:00	71.8	71.8	71.8	54	54.2	2	4	292	0.00	29.953 
12:05	71.8	71.8	71.8	51	52.7	1	4	315	0.00	29.953 
12:10	71.8	71.8	71.8	53	53.7	1	3	292	0.00	29.953 
12:15	72.1	72.1	72.1	52	53.5	2	5	292	0.00	29.957 
12:20	72.3	72.3	72.3	48	51.5	2	4	315	0.00	29.957 
12:25	72.8	72.8	72.8	51	53.6	2	6	292	0.00	29.957 
12:30	73.2	73.2	73.2	49	52.9	1	4	315	0.00	29.955 
12:35	73.9	73.9	73.9	49	53.5	1	4	270	0.00	29.955 
12:40	74.0	74.0	74.0	48	53.0	1	3	270	0.00	29.955 
12:45	73.0	73.0	73.0	49	52.7	2	4	270	0.00	29.956 
12:50	73.5	73.5	73.5	50	53.7	2	3	270	0.00	29.956 
12:55	73.5	73.5	73.5	47	52.0	2	4	270	0.00	29.956 
13:00	73.7	73.7	73.7	46	51.6	2	4	270	0.00	29.955 
13:05	73.9	73.9	73.9	46	51.8	2	5	292	0.00	29.955 
13:10	74.2	74.2	74.2	46	52.1	1	4	292	0.00	29.955 
13:15	73.9	73.9	73.9	46	51.8	1	3	338	0.00	29.956 
13:20	73.5	73.5	73.5	45	50.8	2	5	270	0.00	29.956 
13:25	73.9	73.9	73.9	48	53.0	1	4	270	0.00	29.956 
13:30	74.0	74.0	74.0	47	52.5	1	2	292	0.00	29.956 
13:35	73.7	73.7	73.7	46	51.6	1	3	315	0.00	29.956 
13:40	73.0	73.0	73.0	49	52.7	1	5	292	0.00	29.956 
13:45	73.2	73.2	73.2	51	54.0	2	5	270	0.00	29.958 
13:50	73.9	73.9	73.9	46	51.8	2	3	292	0.00	29.958 
13:55	74.2	74.2	74.2	47	52.7	1	4	315	0.00	29.958 
14:00	74.0	74.0	74.0	45	51.3	2	4	270	0.00	29.956 
14:05	73.3	73.3	73.3	46	51.3	2	4	270	0.00	29.956 
14:10	73.9	73.9	73.9	47	52.4	1	4	292	0.00	29.956 
14:15	74.6	74.6	74.6	42	50.0	2	5	270	0.00	29.956 
14:20	74.4	74.4	74.4	44	51.0	1	4	292	0.00	29.956 
14:25	74.9	74.9	74.9	43	50.9	1	3	292	0.00	29.956 
14:30	74.6	74.6	74.6	45	51.8	1	5	292	0.00	29.954 
14:35	74.2	74.2	74.2	46	52.1	2	3	292	0.00	29.954 
14:40	73.9	73.9	73.9	45	51.2	1	3	315	0.00	29.954 
14:45	74.0	74.0	74.0	49	53.6	1	3	315	0.00	29.956 
14:50	75.1	75.1	77.6	44	51.7	1	3	315	0.00	29.956 
14:55	75.3	75.3	77.7	45	52.5	1	4	315	0.00	29.956 
15:00	75.6	75.6	77.8	44	52.1	2	5	270	0.00	29.952 
15:05	75.4	75.4	77.6	41	50.0	2	4	270	0.00	29.952 
15:10	74.9	74.9	74.9	44	51.5	1	4	315	0.00	29.952 
15:15	75.4	75.4	77.7	44	52.0	2	5	270	0.00	29.949 
15:20	75.4	75.4	77.7	42	50.7	2	5	292	0.00	29.949 
15:25	76.0	76.0	77.9	43	51.9	1	3	270	0.00	29.949 
15:30	75.8	75.8	77.7	39	49.1	1	5	292	0.00	29.952 
15:35	74.7	74.7	74.7	41	49.4	1	4	292	0.00	29.952 
15:40	74.7	74.7	74.7	44	51.3	2	5	315	0.00	29.952 
15:45	75.4	75.4	77.6	40	49.4	2	4	292	0.00	29.950 
15:50	75.8	75.8	77.7	40	49.7	2	3	292	0.00	29.950 
15:55	76.0	76.0	77.7	38	48.5	1	4	315	0.00	29.950 
16:00	75.4	75.4	77.7	42	50.7	2	5	292	0.00	29.953 
16:05	75.4	75.4	77.5	38	48.0	2	6	292	0.00	29.953 
16:10	75.4	75.4	77.6	39	48.7	1	4	315	0.00	29.953 
16:15	76.0	76.0	77.9	41	50.6	2	4	315	0.00	29.948 
16:20	76.1	76.1	77.7	37	47.9	2	5	270	0.00	29.948 
16:25	75.8	75.8	77.5	35	46.2	2	5	292	0.00	29.948 
16:30	76.0	76.0	77.8	39	49.2	1	3	292	0.00	29.946 
16:35	75.8	75.8	77.6	36	46.9	2	4	292	0.00	29.946 
16:40	75.8	75.8	77.6	37	47.7	1	4	292	0.00	29.946 
16:45	75.8	75.8	77.6	36	46.9	3	4	270	0.00	29.943 
16:50	75.8	75.8	77.6	37	47.7	1	4	270	0.00	29.943 
16:55	75.8	75.8	77.6	36	46.9	2	3	270	0.00	29.943 
17:00	75.8	75.8	77.7	38	48.4	2	5	248	0.00	29.944 
17:05	76.1	76.1	77.6	35	46.4	1	3	248	0.00	29.944 
17:10	76.3	76.3	77.7	36	47.4	1	3	248	0.00	29.944 
17:15	76.5	76.5	77.7	33	45.2	1	6	292	0.00	29.944 
17:20	76.1	76.1	77.8	38	48.6	2	4	270	0.00	29.944 
17:25	76.1	76.1	77.6	35	46.4	1	4	248	0.00	29.944 
17:30	76.1	76.1	77.6	35	46.4	2	4	270	0.00	29.944 
17:35	76.0	76.0	77.6	35	46.4	2	5	270	0.00	29.944 
17:40	76.0	76.0	77.7	38	48.5	0	2	270	0.00	29.944 
17:45	76.1	76.1	77.6	35	46.4	1	2	270	0.00	29.944 
17:50	75.8	75.8	77.5	34	45.4	2	5	270	0.00	29.944 
17:55	75.8	75.8	77.6	36	46.9	1	4	270	0.00	29.944 
18:00	76.0	76.0	77.6	36	47.1	1	2	292	0.00	29.942 
18:05	76.1	76.1	77.6	34	45.7	1	4	292	0.00	29.942 
18:10	76.0	76.0	77.4	32	44.0	1	3	315	0.00	29.942 
18:15	75.6	75.6	77.4	34	45.2	1	4	315	0.00	29.945 
18:20	75.4	75.4	77.3	34	45.1	1	3	270	0.00	29.945 
18:25	75.3	75.3	77.5	37	47.2	1	3	292	0.00	29.945 
18:30	75.3	75.3	77.4	36	46.5	1	4	315	0.00	29.944 
18:35	75.1	75.1	77.4	37	47.0	2	5	292	0.00	29.944 
18:40	75.1	75.1	77.4	37	47.0	2	5	292	0.00	29.944 
18:45	74.9	74.9	74.9	36	46.1	1	6	270	0.00	29.947 
18:50	74.7	74.7	74.7	37	46.7	2	4	315	0.00	29.947 
18:55	74.6	74.6	74.6	36	45.9	2	4	270	0.00	29.947 
19:00	74.4	74.4	74.4	36	45.7	1	4	315	0.00	29.947 
19:05	74.4	74.4	74.4	35	44.9	1	3	292	0.00	29.947 
19:10	74.2	74.2	74.2	35	44.8	2	4	270	0.00	29.947 
19:15	74.0	74.0	74.0	36	45.3	2	5	315	0.00	29.943 
19:20	73.9	73.9	73.9	35	44.5	2	4	270	0.00	29.943 
19:25	73.7	73.7	73.7	35	44.3	1	4	270	0.00	29.943 
19:30	73.7	73.7	73.7	37	45.8	0	2	270	0.00	29.943 
19:35	73.5	73.5	73.5	35	44.2	0	2	270	0.00	29.943 
19:40	73.5	73.5	73.5	36	44.9	0	2	315	0.00	29.943 
19:45	73.2	73.2	73.2	38	46.1	0	1	315	0.00	29.948 
19:50	73.0	73.0	73.0	38	45.9	0	1	315	0.00	29.948 
19:55	72.8	72.8	72.8	40	47.1	0	1	315	0.00	29.948 
20:00	72.5	72.5	72.5	39	46.1	0	1	315	0.00	29.947 
20:05	72.3	72.3	72.3	39	45.9	0	1	315	0.00	29.947 
20:10	72.1	72.1	72.1	40	46.4	0	1	315	0.00	29.947 
20:15	71.8	71.8	71.8	42	47.5	0	1	315	0.00	29.949 
20:20	71.6	71.6	71.6	41	46.6	0	1	315	0.00	29.949 
20:25	71.3	71.3	71.3	43	47.6	0	0	---	0.00	29.949 
20:30	70.9	70.9	70.9	44	47.9	0	0	---	0.00	29.950 
20:35	70.4	70.4	70.4	44	47.4	0	0	---	0.00	29.950 
20:40	69.9	69.9	69.9	45	47.6	0	0	---	0.00	29.950 
20:45	69.4	69.4	69.4	45	47.1	0	0	---	0.00	29.950 
20:50	68.9	68.9	68.9	46	47.3	0	0	---	0.00	29.950 
20:55	68.4	68.4	68.4	47	47.4	0	0	---	0.00	29.950 
21:00	67.9	67.9	67.9	48	47.5	0	0	---	0.00	29.950 
21:05	67.4	67.4	67.4	49	47.6	0	0	---	0.00	29.950 
21:10	67.1	67.1	67.1	50	47.8	0	0	---	0.00	29.950 
21:15	66.6	66.6	66.6	50	47.4	0	0	---	0.00	29.955 
21:20	66.0	66.0	66.0	52	47.9	0	0	---	0.00	29.955 
21:25	65.5	65.5	65.5	52	47.4	0	0	---	0.00	29.955 
21:30	65.0	65.0	65.0	55	48.4	0	0	---	0.00	29.957 
21:35	64.7	64.7	64.7	56	48.6	0	0	---	0.00	29.957 
21:40	64.2	64.2	64.2	57	48.6	0	0	---	0.00	29.957 
21:45	63.9	63.9	63.9	58	48.8	0	0	---	0.00	29.963 
21:50	63.5	63.5	63.5	59	48.9	0	0	---	0.00	29.963 
21:55	63.1	63.1	63.1	61	49.4	0	0	---	0.00	29.963 
22:00	62.7	62.7	62.7	62	49.5	0	0	---	0.00	29.966 
22:05	62.4	62.4	62.4	63	49.6	0	0	---	0.00	29.966 
22:10	62.1	62.1	62.1	64	49.8	0	0	---	0.00	29.966 
22:15	61.8	61.8	61.8	65	49.9	0	0	---	0.00	29.976 
22:20	61.6	61.6	61.6	66	50.1	0	0	---	0.00	29.976 
22:25	61.3	61.3	61.3	66	49.8	0	0	---	0.00	29.976 
22:30	61.2	61.2	61.2	67	50.2	0	0	---	0.00	29.980 
22:35	61.0	61.0	61.0	67	50.0	0	0	---	0.00	29.980 
22:40	60.9	60.9	60.9	68	50.3	0	0	---	0.00	29.980 
22:45	60.5	60.5	60.5	69	50.3	0	0	---	0.00	29.987 
22:50	60.4	60.4	60.4	69	50.2	0	0	---	0.00	29.987 
22:55	60.2	60.2	60.2	70	50.4	0	0	---	0.00	29.987 
23:00	59.9	59.9	59.9	71	50.5	0	0	---	0.00	29.994 
23:05	59.8	59.8	59.8	71	50.4	0	0	---	0.00	29.994 
23:10	59.6	59.6	59.6	73	50.9	0	0	---	0.00	29.994 
23:15	59.5	59.5	59.5	73	50.8	0	0	---	0.00	29.993 
23:20	59.3	59.3	59.3	73	50.6	0	0	---	0.00	29.993 
23:25	59.3	59.3	59.3	74	51.0	0	0	---	0.00	29.993 
23:30	59.2	59.2	59.2	74	50.9	0	0	---	0.00	29.996 
23:35	59.0	59.0	59.0	75	51.1	0	0	---	0.00	29.996 
23:40	58.9	58.9	58.9	76	51.3	0	0	---	0.00	29.996 
23:45	58.7	58.7	58.7	77	51.5	0	0	---	0.00	29.993 
23:50	58.6	58.6	58.6	78	51.8	0	0	---	0.00	29.993 
23:55	58.4	58.4	58.4	78	51.6	0	0	---	0.00	29.993 

CoCoRaHS
IN-AL-39
A2 Web Hosting
Creative Commons License
GoDaddy
search engine by freefind advanced

loaded 2018-11-15 04:19:18 • last modified 2010-11-18 10:43:29
Privacy PolicyDisclaimer
• wx.awcolley.com is powered by PmWiki v.2002016 •
• all content (unless otherwise noted) © 2018 A W Colley